Pagrindinis puslapis
METAR-TAF:

METAR-TAF

Oro uostai :

Incirlik, Turkija

platuma: 37-00N, ilguma: 035-25E, Aukštis: 73 m

Dabartinis oras

Ataskaita buvo paskelbta 46 minutes, ne 19:50 UTC
Ramus vėjas
Temperatūra 9°C
Drėgmė 87%
Slėgis 1020 hPa
Matomumas 10 km arba daugiau
nėra debesų žemiau 1500 m ir nėra kamuolinių lietaus debesų

METAR: LTAG 151950Z 00000KT CAVOK 09/07 Q1020 NOSIG

Laikas: 23:36 (20:36 UTC)

Prognozė

Ataskaita buvo paskelbta 3 valandos ir 56 minutes, ne 16:40 UTC
Prognozė galioja nuo 15 metu 18 UTC su 16 metu 18 UTC
Vėjas 9 kt iš Šiaurės
Matomumas 10 km arba daugiau
nėra debesų žemiau 1500 m ir nėra kamuolinių lietaus debesų

TAF: LTAG 151640Z 1518/1618 01009KT CAVOK

Orai ataskaitas ir orų prognozės (METAR, TAF).

turimą stotys yra geltonos ir raudonos taškus žemėlapyje.

Perkelti pele per norėdami pamatyti stoties vardą.

Tada spustelėkite, norėdami matyti oro stebėjimo ir prognozės.

Norėdami pakeisti žemėlapį: spustelėkite ant žalios mygtukų su juodo kryžiaus žemyn,; žalią mygtuką su brūkšneliu, jei norite nutolinti; arba žalių rodyklių gretimoms žemėlapius.


METAR-TAF: